sensor_id;sensor_type;location;lat;lon;timestamp;P1;durP1;ratioP1;P2;durP2;ratioP2
18114;SDS011;9184;54.390;18.620;2023-09-19T00:00:02;30.92;;;23.33;;
18114;SDS011;9184;54.390;18.620;2023-09-19T00:00:33;32.17;;;25.70;;
18114;SDS011;9184;54.390;18.620;2023-09-19T00:01:04;25.58;;;22.48;;
18114;SDS011;9184;54.390;18.620;2023-09-19T00:01:37;35.60;;;22.60;;
18114;SDS011;9184;54.390;18.620;2023-09-19T00:02:08;29.30;;;22.95;;
18114;SDS011;9184;54.390;18.620;2023-09-19T00:02:39;30.45;;;23.52;;
18114;SDS011;9184;54.390;18.620;2023-09-19T00:03:09;28.35;;;22.92;;
18114;SDS011;9184;54.390;18.620;2023-09-19T00:03:41;30.63;;;24.38;;
18114;SDS011;9184;54.390;18.620;2023-09-19T00:04:12;31.70;;;23.88;;
18114;SDS011;9184;54.390;18.620;2023-09-19T00:04:42;30.90;;;22.80;;
18114;SDS011;9184;54.390;18.620;2023-09-19T00:05:13;30.55;;;23.08;;
18114;SDS011;9184;54.390;18.620;2023-09-19T00:05:45;30.08;;;24.92;;
18114;SDS011;9184;54.390;18.620;2023-09-19T00:06:15;30.52;;;23.50;;
18114;SDS011;9184;54.390;18.620;2023-09-19T00:06:46;27.73;;;23.70;;
18114;SDS011;9184;54.390;18.620;2023-09-19T00:07:17;26.90;;;23.15;;
18114;SDS011;9184;54.390;18.620;2023-09-19T00:07:49;28.50;;;23.67;;
18114;SDS011;9184;54.390;18.620;2023-09-19T00:08:21;26.52;;;23.55;;
18114;SDS011;9184;54.390;18.620;2023-09-19T00:08:54;30.80;;;23.48;;
18114;SDS011;9184;54.390;18.620;2023-09-19T00:09:25;31.25;;;23.60;;
18114;SDS011;9184;54.390;18.620;2023-09-19T00:09:57;27.80;;;24.38;;
18114;SDS011;9184;54.390;18.620;2023-09-19T00:10:28;27.98;;;24.15;;
18114;SDS011;9184;54.390;18.620;2023-09-19T00:11:01;29.27;;;22.20;;
18114;SDS011;9184;54.390;18.620;2023-09-19T00:11:33;26.58;;;23.00;;
18114;SDS011;9184;54.390;18.620;2023-09-19T00:12:06;28.92;;;23.45;;
18114;SDS011;9184;54.390;18.620;2023-09-19T00:12:36;30.27;;;23.83;;
18114;SDS011;9184;54.390;18.620;2023-09-19T00:13:07;29.98;;;23.85;;
18114;SDS011;9184;54.390;18.620;2023-09-19T00:13:39;29.98;;;23.05;;
18114;SDS011;9184;54.390;18.620;2023-09-19T00:14:09;30.10;;;25.13;;
18114;SDS011;9184;54.390;18.620;2023-09-19T00:14:44;31.10;;;23.45;;
18114;SDS011;9184;54.390;18.620;2023-09-19T00:15:15;29.67;;;22.92;;
18114;SDS011;9184;54.390;18.620;2023-09-19T00:15:47;27.95;;;23.83;;
18114;SDS011;9184;54.390;18.620;2023-09-19T00:16:18;25.58;;;22.80;;
18114;SDS011;9184;54.390;18.620;2023-09-19T00:16:50;25.05;;;21.75;;
18114;SDS011;9184;54.390;18.620;2023-09-19T00:17:20;30.00;;;23.52;;
18114;SDS011;9184;54.390;18.620;2023-09-19T00:17:51;33.10;;;23.27;;
18114;SDS011;9184;54.390;18.620;2023-09-19T00:18:22;26.67;;;22.92;;
18114;SDS011;9184;54.390;18.620;2023-09-19T00:18:58;30.25;;;23.73;;
18114;SDS011;9184;54.390;18.620;2023-09-19T00:19:29;30.92;;;22.85;;
18114;SDS011;9184;54.390;18.620;2023-09-19T00:19:59;26.85;;;23.10;;
18114;SDS011;9184;54.390;18.620;2023-09-19T00:20:37;28.10;;;23.45;;
18114;SDS011;9184;54.390;18.620;2023-09-19T00:21:09;28.75;;;24.58;;
18114;SDS011;9184;54.390;18.620;2023-09-19T00:21:40;27.20;;;22.70;;
18114;SDS011;9184;54.390;18.620;2023-09-19T00:22:11;29.50;;;23.27;;
18114;SDS011;9184;54.390;18.620;2023-09-19T00:22:43;28.17;;;23.08;;
18114;SDS011;9184;54.390;18.620;2023-09-19T00:23:14;30.77;;;24.30;;
18114;SDS011;9184;54.390;18.620;2023-09-19T00:23:45;26.30;;;22.73;;
18114;SDS011;9184;54.390;18.620;2023-09-19T00:24:16;25.92;;;23.13;;
18114;SDS011;9184;54.390;18.620;2023-09-19T00:24:47;25.02;;;22.25;;
18114;SDS011;9184;54.390;18.620;2023-09-19T00:25:18;27.85;;;22.63;;
18114;SDS011;9184;54.390;18.620;2023-09-19T00:25:50;27.55;;;23.75;;
18114;SDS011;9184;54.390;18.620;2023-09-19T00:26:21;30.60;;;23.63;;
18114;SDS011;9184;54.390;18.620;2023-09-19T00:26:53;26.92;;;23.80;;
18114;SDS011;9184;54.390;18.620;2023-09-19T00:27:24;28.65;;;23.48;;
18114;SDS011;9184;54.390;18.620;2023-09-19T00:27:55;26.45;;;22.75;;
18114;SDS011;9184;54.390;18.620;2023-09-19T00:28:26;24.77;;;22.15;;
18114;SDS011;9184;54.390;18.620;2023-09-19T00:28:56;28.80;;;23.85;;
18114;SDS011;9184;54.390;18.620;2023-09-19T00:29:27;28.65;;;24.20;;
18114;SDS011;9184;54.390;18.620;2023-09-19T00:29:59;25.55;;;21.63;;
18114;SDS011;9184;54.390;18.620;2023-09-19T00:30:31;25.40;;;22.58;;
18114;SDS011;9184;54.390;18.620;2023-09-19T00:31:03;25.65;;;22.60;;
18114;SDS011;9184;54.390;18.620;2023-09-19T00:31:35;29.38;;;23.30;;
18114;SDS011;9184;54.390;18.620;2023-09-19T00:32:07;29.42;;;23.60;;
18114;SDS011;9184;54.390;18.620;2023-09-19T00:32:38;27.35;;;23.25;;
18114;SDS011;9184;54.390;18.620;2023-09-19T00:33:09;30.98;;;22.80;;
18114;SDS011;9184;54.390;18.620;2023-09-19T00:33:41;28.80;;;23.65;;
18114;SDS011;9184;54.390;18.620;2023-09-19T00:34:13;27.63;;;23.10;;
18114;SDS011;9184;54.390;18.620;2023-09-19T00:34:43;29.42;;;23.90;;
18114;SDS011;9184;54.390;18.620;2023-09-19T00:35:14;29.65;;;23.65;;
18114;SDS011;9184;54.390;18.620;2023-09-19T00:35:48;26.67;;;21.90;;
18114;SDS011;9184;54.390;18.620;2023-09-19T00:36:19;31.75;;;23.45;;
18114;SDS011;9184;54.390;18.620;2023-09-19T00:36:50;26.40;;;23.08;;
18114;SDS011;9184;54.390;18.620;2023-09-19T00:37:23;31.35;;;23.83;;
18114;SDS011;9184;54.390;18.620;2023-09-19T00:37:53;26.80;;;23.55;;
18114;SDS011;9184;54.390;18.620;2023-09-19T00:38:25;27.85;;;23.92;;
18114;SDS011;9184;54.390;18.620;2023-09-19T00:38:57;29.67;;;23.77;;
18114;SDS011;9184;54.390;18.620;2023-09-19T00:39:27;31.38;;;24.88;;
18114;SDS011;9184;54.390;18.620;2023-09-19T00:39:58;27.65;;;24.52;;
18114;SDS011;9184;54.390;18.620;2023-09-19T00:40:29;28.77;;;23.10;;
18114;SDS011;9184;54.390;18.620;2023-09-19T00:41:00;28.75;;;24.05;;
18114;SDS011;9184;54.390;18.620;2023-09-19T00:41:30;27.92;;;23.27;;
18114;SDS011;9184;54.390;18.620;2023-09-19T00:42:02;27.58;;;23.83;;
18114;SDS011;9184;54.390;18.620;2023-09-19T00:42:35;26.98;;;23.95;;
18114;SDS011;9184;54.390;18.620;2023-09-19T00:43:08;28.17;;;23.98;;
18114;SDS011;9184;54.390;18.620;2023-09-19T00:43:38;37.22;;;24.00;;
18114;SDS011;9184;54.390;18.620;2023-09-19T00:44:10;26.23;;;23.45;;
18114;SDS011;9184;54.390;18.620;2023-09-19T00:44:42;27.73;;;22.85;;
18114;SDS011;9184;54.390;18.620;2023-09-19T00:45:13;29.58;;;23.40;;
18114;SDS011;9184;54.390;18.620;2023-09-19T00:45:45;31.55;;;25.30;;
18114;SDS011;9184;54.390;18.620;2023-09-19T00:46:18;29.23;;;24.10;;
18114;SDS011;9184;54.390;18.620;2023-09-19T00:46:49;31.35;;;22.75;;
18114;SDS011;9184;54.390;18.620;2023-09-19T00:47:20;28.30;;;23.02;;
18114;SDS011;9184;54.390;18.620;2023-09-19T00:47:51;27.73;;;24.65;;
18114;SDS011;9184;54.390;18.620;2023-09-19T00:48:22;29.83;;;24.27;;
18114;SDS011;9184;54.390;18.620;2023-09-19T00:48:54;26.55;;;23.48;;
18114;SDS011;9184;54.390;18.620;2023-09-19T00:49:27;25.33;;;22.60;;
18114;SDS011;9184;54.390;18.620;2023-09-19T00:49:57;28.55;;;22.95;;
18114;SDS011;9184;54.390;18.620;2023-09-19T00:50:28;26.67;;;23.20;;
18114;SDS011;9184;54.390;18.620;2023-09-19T00:51:02;30.63;;;23.75;;
18114;SDS011;9184;54.390;18.620;2023-09-19T00:51:33;27.42;;;23.23;;
18114;SDS011;9184;54.390;18.620;2023-09-19T00:52:05;26.42;;;22.90;;
18114;SDS011;9184;54.390;18.620;2023-09-19T00:52:37;27.23;;;24.25;;
18114;SDS011;9184;54.390;18.620;2023-09-19T00:53:09;25.75;;;23.00;;
18114;SDS011;9184;54.390;18.620;2023-09-19T00:53:43;29.35;;;24.33;;
18114;SDS011;9184;54.390;18.620;2023-09-19T00:54:16;29.65;;;23.30;;
18114;SDS011;9184;54.390;18.620;2023-09-19T00:54:48;26.50;;;23.15;;
18114;SDS011;9184;54.390;18.620;2023-09-19T00:55:20;28.45;;;24.17;;
18114;SDS011;9184;54.390;18.620;2023-09-19T00:55:51;33.30;;;24.33;;
18114;SDS011;9184;54.390;18.620;2023-09-19T00:56:22;28.15;;;24.40;;
18114;SDS011;9184;54.390;18.620;2023-09-19T00:56:53;28.67;;;23.60;;
18114;SDS011;9184;54.390;18.620;2023-09-19T00:57:26;24.52;;;21.88;;
18114;SDS011;9184;54.390;18.620;2023-09-19T00:57:56;28.73;;;24.55;;
18114;SDS011;9184;54.390;18.620;2023-09-19T00:58:27;26.80;;;23.80;;
18114;SDS011;9184;54.390;18.620;2023-09-19T00:59:02;28.25;;;24.58;;
18114;SDS011;9184;54.390;18.620;2023-09-19T00:59:34;28.50;;;23.15;;
18114;SDS011;9184;54.390;18.620;2023-09-19T01:00:06;25.30;;;22.13;;
18114;SDS011;9184;54.390;18.620;2023-09-19T01:00:38;25.23;;;22.38;;
18114;SDS011;9184;54.390;18.620;2023-09-19T01:01:09;25.58;;;22.33;;
18114;SDS011;9184;54.390;18.620;2023-09-19T01:01:41;27.88;;;23.45;;
18114;SDS011;9184;54.390;18.620;2023-09-19T01:02:12;29.30;;;23.77;;
18114;SDS011;9184;54.390;18.620;2023-09-19T01:02:44;27.60;;;23.00;;
18114;SDS011;9184;54.390;18.620;2023-09-19T01:03:14;28.60;;;23.80;;
18114;SDS011;9184;54.390;18.620;2023-09-19T01:03:46;29.55;;;23.80;;
18114;SDS011;9184;54.390;18.620;2023-09-19T01:04:16;26.10;;;23.33;;
18114;SDS011;9184;54.390;18.620;2023-09-19T01:04:48;30.25;;;22.85;;
18114;SDS011;9184;54.390;18.620;2023-09-19T01:05:18;33.00;;;23.33;;
18114;SDS011;9184;54.390;18.620;2023-09-19T01:05:49;26.42;;;22.60;;
18114;SDS011;9184;54.390;18.620;2023-09-19T01:06:21;27.20;;;23.35;;
18114;SDS011;9184;54.390;18.620;2023-09-19T01:06:51;29.50;;;24.45;;
18114;SDS011;9184;54.390;18.620;2023-09-19T01:07:23;25.42;;;22.67;;
18114;SDS011;9184;54.390;18.620;2023-09-19T01:07:54;45.88;;;23.85;;
18114;SDS011;9184;54.390;18.620;2023-09-19T01:08:25;27.65;;;22.67;;
18114;SDS011;9184;54.390;18.620;2023-09-19T01:08:59;31.40;;;24.15;;
18114;SDS011;9184;54.390;18.620;2023-09-19T01:09:30;29.90;;;23.35;;
18114;SDS011;9184;54.390;18.620;2023-09-19T01:10:02;26.55;;;23.38;;
18114;SDS011;9184;54.390;18.620;2023-09-19T01:10:35;31.63;;;24.80;;
18114;SDS011;9184;54.390;18.620;2023-09-19T01:11:09;30.92;;;24.50;;
18114;SDS011;9184;54.390;18.620;2023-09-19T01:11:42;29.10;;;23.48;;
18114;SDS011;9184;54.390;18.620;2023-09-19T01:12:16;27.92;;;24.50;;
18114;SDS011;9184;54.390;18.620;2023-09-19T01:12:54;27.90;;;23.95;;
18114;SDS011;9184;54.390;18.620;2023-09-19T01:13:27;33.13;;;25.10;;
18114;SDS011;9184;54.390;18.620;2023-09-19T01:14:02;28.92;;;23.85;;
18114;SDS011;9184;54.390;18.620;2023-09-19T01:14:39;28.65;;;24.73;;
18114;SDS011;9184;54.390;18.620;2023-09-19T01:15:15;31.13;;;25.35;;
18114;SDS011;9184;54.390;18.620;2023-09-19T01:15:51;27.00;;;23.58;;
18114;SDS011;9184;54.390;18.620;2023-09-19T01:16:31;33.08;;;25.58;;
18114;SDS011;9184;54.390;18.620;2023-09-19T01:17:05;34.97;;;25.60;;
18114;SDS011;9184;54.390;18.620;2023-09-19T01:17:40;29.00;;;24.27;;
18114;SDS011;9184;54.390;18.620;2023-09-19T01:18:16;34.03;;;27.25;;
18114;SDS011;9184;54.390;18.620;2023-09-19T01:18:52;30.25;;;26.33;;
18114;SDS011;9184;54.390;18.620;2023-09-19T01:19:41;33.30;;;25.33;;
18114;SDS011;9184;54.390;18.620;2023-09-19T01:20:21;30.25;;;26.00;;
18114;SDS011;9184;54.390;18.620;2023-09-19T01:20:53;31.23;;;26.35;;
18114;SDS011;9184;54.390;18.620;2023-09-19T01:21:27;32.25;;;26.42;;
18114;SDS011;9184;54.390;18.620;2023-09-19T01:22:00;34.85;;;26.40;;
18114;SDS011;9184;54.390;18.620;2023-09-19T01:22:37;32.35;;;27.20;;
18114;SDS011;9184;54.390;18.620;2023-09-19T01:23:11;32.92;;;27.10;;
18114;SDS011;9184;54.390;18.620;2023-09-19T01:23:58;31.33;;;27.52;;
18114;SDS011;9184;54.390;18.620;2023-09-19T01:24:49;31.15;;;25.08;;
18114;SDS011;9184;54.390;18.620;2023-09-19T01:25:39;33.65;;;27.35;;
18114;SDS011;9184;54.390;18.620;2023-09-19T01:26:15;39.63;;;27.67;;
18114;SDS011;9184;54.390;18.620;2023-09-19T01:26:56;33.90;;;27.52;;
18114;SDS011;9184;54.390;18.620;2023-09-19T01:27:38;34.17;;;26.25;;
18114;SDS011;9184;54.390;18.620;2023-09-19T01:29:16;30.05;;;26.83;;
18114;SDS011;9184;54.390;18.620;2023-09-19T01:29:49;33.20;;;26.45;;
18114;SDS011;9184;54.390;18.620;2023-09-19T01:30:21;32.75;;;27.88;;
18114;SDS011;9184;54.390;18.620;2023-09-19T01:30:55;32.70;;;27.38;;
18114;SDS011;9184;54.390;18.620;2023-09-19T01:31:28;30.23;;;26.77;;
18114;SDS011;9184;54.390;18.620;2023-09-19T01:31:59;32.83;;;28.05;;
18114;SDS011;9184;54.390;18.620;2023-09-19T01:32:33;31.67;;;26.95;;
18114;SDS011;9184;54.390;18.620;2023-09-19T01:33:04;32.45;;;27.35;;
18114;SDS011;9184;54.390;18.620;2023-09-19T01:33:55;34.25;;;27.92;;
18114;SDS011;9184;54.390;18.620;2023-09-19T01:34:42;33.22;;;27.05;;
18114;SDS011;9184;54.390;18.620;2023-09-19T01:35:14;34.83;;;29.05;;
18114;SDS011;9184;54.390;18.620;2023-09-19T01:35:44;37.35;;;28.23;;
18114;SDS011;9184;54.390;18.620;2023-09-19T01:36:15;35.53;;;27.52;;
18114;SDS011;9184;54.390;18.620;2023-09-19T01:36:46;32.00;;;28.58;;
18114;SDS011;9184;54.390;18.620;2023-09-19T01:37:17;31.83;;;27.10;;
18114;SDS011;9184;54.390;18.620;2023-09-19T01:37:50;33.05;;;27.92;;
18114;SDS011;9184;54.390;18.620;2023-09-19T01:38:20;37.08;;;27.83;;
18114;SDS011;9184;54.390;18.620;2023-09-19T01:38:51;34.25;;;28.98;;
18114;SDS011;9184;54.390;18.620;2023-09-19T01:39:22;32.95;;;28.48;;
18114;SDS011;9184;54.390;18.620;2023-09-19T01:39:55;32.45;;;28.80;;
18114;SDS011;9184;54.390;18.620;2023-09-19T01:40:26;32.08;;;27.55;;
18114;SDS011;9184;54.390;18.620;2023-09-19T01:40:58;34.72;;;28.88;;
18114;SDS011;9184;54.390;18.620;2023-09-19T01:41:38;32.22;;;27.65;;
18114;SDS011;9184;54.390;18.620;2023-09-19T01:42:12;31.70;;;28.27;;
18114;SDS011;9184;54.390;18.620;2023-09-19T01:42:50;35.17;;;28.17;;
18114;SDS011;9184;54.390;18.620;2023-09-19T01:43:26;36.08;;;29.02;;
18114;SDS011;9184;54.390;18.620;2023-09-19T01:43:57;36.30;;;27.60;;
18114;SDS011;9184;54.390;18.620;2023-09-19T01:44:31;34.38;;;28.40;;
18114;SDS011;9184;54.390;18.620;2023-09-19T01:45:08;34.75;;;28.40;;
18114;SDS011;9184;54.390;18.620;2023-09-19T01:45:46;32.55;;;27.48;;
18114;SDS011;9184;54.390;18.620;2023-09-19T01:46:18;33.70;;;29.23;;
18114;SDS011;9184;54.390;18.620;2023-09-19T01:46:50;35.88;;;28.60;;
18114;SDS011;9184;54.390;18.620;2023-09-19T01:47:23;37.10;;;28.83;;
18114;SDS011;9184;54.390;18.620;2023-09-19T01:47:56;36.40;;;27.30;;
18114;SDS011;9184;54.390;18.620;2023-09-19T01:48:35;32.92;;;27.75;;
18114;SDS011;9184;54.390;18.620;2023-09-19T01:49:13;38.22;;;27.70;;
18114;SDS011;9184;54.390;18.620;2023-09-19T01:49:48;35.88;;;27.40;;
18114;SDS011;9184;54.390;18.620;2023-09-19T01:50:22;35.83;;;28.98;;
18114;SDS011;9184;54.390;18.620;2023-09-19T01:50:59;33.58;;;28.02;;
18114;SDS011;9184;54.390;18.620;2023-09-19T01:51:32;35.63;;;28.80;;
18114;SDS011;9184;54.390;18.620;2023-09-19T01:52:05;33.90;;;27.63;;
18114;SDS011;9184;54.390;18.620;2023-09-19T01:52:42;34.50;;;27.50;;
18114;SDS011;9184;54.390;18.620;2023-09-19T01:53:19;31.33;;;27.98;;
18114;SDS011;9184;54.390;18.620;2023-09-19T01:53:53;32.88;;;26.73;;
18114;SDS011;9184;54.390;18.620;2023-09-19T01:54:27;30.92;;;27.60;;
18114;SDS011;9184;54.390;18.620;2023-09-19T01:55:02;31.15;;;27.50;;
18114;SDS011;9184;54.390;18.620;2023-09-19T01:55:40;32.58;;;28.83;;
18114;SDS011;9184;54.390;18.620;2023-09-19T01:56:20;31.25;;;27.60;;
18114;SDS011;9184;54.390;18.620;2023-09-19T01:56:54;33.63;;;29.35;;
18114;SDS011;9184;54.390;18.620;2023-09-19T01:57:29;36.40;;;26.85;;
18114;SDS011;9184;54.390;18.620;2023-09-19T01:58:01;33.58;;;25.92;;
18114;SDS011;9184;54.390;18.620;2023-09-19T01:58:35;34.83;;;27.13;;
18114;SDS011;9184;54.390;18.620;2023-09-19T01:59:10;34.65;;;28.15;;
18114;SDS011;9184;54.390;18.620;2023-09-19T01:59:43;34.10;;;28.50;;
18114;SDS011;9184;54.390;18.620;2023-09-19T02:00:15;31.90;;;27.80;;
18114;SDS011;9184;54.390;18.620;2023-09-19T02:00:49;35.17;;;28.20;;
18114;SDS011;9184;54.390;18.620;2023-09-19T02:01:22;32.03;;;27.92;;
18114;SDS011;9184;54.390;18.620;2023-09-19T02:01:53;30.00;;;26.27;;
18114;SDS011;9184;54.390;18.620;2023-09-19T02:02:24;32.58;;;26.77;;
18114;SDS011;9184;54.390;18.620;2023-09-19T02:02:56;29.40;;;25.42;;
18114;SDS011;9184;54.390;18.620;2023-09-19T02:03:28;33.00;;;26.77;;
18114;SDS011;9184;54.390;18.620;2023-09-19T02:03:59;31.08;;;25.25;;
18114;SDS011;9184;54.390;18.620;2023-09-19T02:04:32;29.80;;;26.10;;
18114;SDS011;9184;54.390;18.620;2023-09-19T02:05:03;29.83;;;26.60;;
18114;SDS011;9184;54.390;18.620;2023-09-19T02:05:34;33.25;;;28.05;;
18114;SDS011;9184;54.390;18.620;2023-09-19T02:06:04;32.53;;;26.65;;
18114;SDS011;9184;54.390;18.620;2023-09-19T02:06:41;30.00;;;26.60;;
18114;SDS011;9184;54.390;18.620;2023-09-19T02:07:12;31.23;;;25.98;;
18114;SDS011;9184;54.390;18.620;2023-09-19T02:07:42;35.25;;;25.88;;
18114;SDS011;9184;54.390;18.620;2023-09-19T02:08:15;31.98;;;25.73;;
18114;SDS011;9184;54.390;18.620;2023-09-19T02:08:48;31.45;;;26.13;;
18114;SDS011;9184;54.390;18.620;2023-09-19T02:09:19;29.77;;;25.15;;
18114;SDS011;9184;54.390;18.620;2023-09-19T02:09:49;34.92;;;25.48;;
18114;SDS011;9184;54.390;18.620;2023-09-19T02:10:20;31.38;;;24.52;;
18114;SDS011;9184;54.390;18.620;2023-09-19T02:10:50;26.60;;;23.20;;
18114;SDS011;9184;54.390;18.620;2023-09-19T02:11:22;28.90;;;25.08;;
18114;SDS011;9184;54.390;18.620;2023-09-19T02:11:53;27.75;;;24.75;;
18114;SDS011;9184;54.390;18.620;2023-09-19T02:12:26;27.55;;;22.63;;
18114;SDS011;9184;54.390;18.620;2023-09-19T02:12:56;29.27;;;22.90;;
18114;SDS011;9184;54.390;18.620;2023-09-19T02:13:27;27.42;;;22.90;;
18114;SDS011;9184;54.390;18.620;2023-09-19T02:13:59;32.78;;;23.15;;
18114;SDS011;9184;54.390;18.620;2023-09-19T02:14:29;27.27;;;24.23;;
18114;SDS011;9184;54.390;18.620;2023-09-19T02:15:01;28.80;;;23.35;;
18114;SDS011;9184;54.390;18.620;2023-09-19T02:15:31;25.88;;;23.08;;
18114;SDS011;9184;54.390;18.620;2023-09-19T02:16:05;30.42;;;24.38;;
18114;SDS011;9184;54.390;18.620;2023-09-19T02:16:37;27.38;;;23.45;;
18114;SDS011;9184;54.390;18.620;2023-09-19T02:17:07;27.98;;;23.48;;
18114;SDS011;9184;54.390;18.620;2023-09-19T02:17:41;27.00;;;22.80;;
18114;SDS011;9184;54.390;18.620;2023-09-19T02:18:12;24.48;;;21.02;;
18114;SDS011;9184;54.390;18.620;2023-09-19T02:18:43;28.45;;;22.67;;
18114;SDS011;9184;54.390;18.620;2023-09-19T02:19:13;24.42;;;21.42;;
18114;SDS011;9184;54.390;18.620;2023-09-19T02:19:44;27.30;;;21.20;;
18114;SDS011;9184;54.390;18.620;2023-09-19T02:20:15;25.20;;;22.45;;
18114;SDS011;9184;54.390;18.620;2023-09-19T02:20:47;26.08;;;21.88;;
18114;SDS011;9184;54.390;18.620;2023-09-19T02:21:17;25.08;;;22.33;;
18114;SDS011;9184;54.390;18.620;2023-09-19T02:21:48;29.52;;;21.58;;
18114;SDS011;9184;54.390;18.620;2023-09-19T02:22:19;23.27;;;20.35;;
18114;SDS011;9184;54.390;18.620;2023-09-19T02:22:50;24.85;;;20.98;;
18114;SDS011;9184;54.390;18.620;2023-09-19T02:23:20;22.65;;;19.60;;
18114;SDS011;9184;54.390;18.620;2023-09-19T02:23:51;25.08;;;21.23;;
18114;SDS011;9184;54.390;18.620;2023-09-19T02:24:22;23.55;;;19.65;;
18114;SDS011;9184;54.390;18.620;2023-09-19T02:24:57;23.38;;;20.63;;
18114;SDS011;9184;54.390;18.620;2023-09-19T02:25:28;22.25;;;17.75;;
18114;SDS011;9184;54.390;18.620;2023-09-19T02:25:59;20.70;;;17.58;;
18114;SDS011;9184;54.390;18.620;2023-09-19T02:26:31;21.92;;;17.00;;
18114;SDS011;9184;54.390;18.620;2023-09-19T02:27:02;20.40;;;17.58;;
18114;SDS011;9184;54.390;18.620;2023-09-19T02:27:34;20.60;;;18.38;;
18114;SDS011;9184;54.390;18.620;2023-09-19T02:28:05;20.52;;;17.23;;
18114;SDS011;9184;54.390;18.620;2023-09-19T02:28:36;21.50;;;17.38;;
18114;SDS011;9184;54.390;18.620;2023-09-19T02:29:07;19.45;;;16.88;;
18114;SDS011;9184;54.390;18.620;2023-09-19T02:29:37;22.02;;;18.80;;
18114;SDS011;9184;54.390;18.620;2023-09-19T02:30:08;21.92;;;17.88;;
18114;SDS011;9184;54.390;18.620;2023-09-19T02:30:39;19.42;;;16.55;;
18114;SDS011;9184;54.390;18.620;2023-09-19T02:31:11;21.80;;;18.33;;
18114;SDS011;9184;54.390;18.620;2023-09-19T02:31:42;19.92;;;16.67;;
18114;SDS011;9184;54.390;18.620;2023-09-19T02:32:13;23.67;;;17.17;;
18114;SDS011;9184;54.390;18.620;2023-09-19T02:32:44;24.05;;;17.15;;
18114;SDS011;9184;54.390;18.620;2023-09-19T02:33:15;20.50;;;17.08;;
18114;SDS011;9184;54.390;18.620;2023-09-19T02:33:47;21.55;;;17.10;;
18114;SDS011;9184;54.390;18.620;2023-09-19T02:34:17;18.67;;;16.67;;
18114;SDS011;9184;54.390;18.620;2023-09-19T02:34:48;24.73;;;17.10;;
18114;SDS011;9184;54.390;18.620;2023-09-19T02:35:18;19.13;;;17.05;;
18114;SDS011;9184;54.390;18.620;2023-09-19T02:35:54;22.90;;;17.75;;
18114;SDS011;9184;54.390;18.620;2023-09-19T02:36:24;20.15;;;17.23;;
18114;SDS011;9184;54.390;18.620;2023-09-19T02:36:55;19.35;;;15.55;;
18114;SDS011;9184;54.390;18.620;2023-09-19T02:37:26;19.88;;;15.95;;
18114;SDS011;9184;54.390;18.620;2023-09-19T02:37:57;17.85;;;15.30;;
18114;SDS011;9184;54.390;18.620;2023-09-19T02:38:28;20.38;;;16.48;;
18114;SDS011;9184;54.390;18.620;2023-09-19T02:38:59;19.65;;;16.10;;
18114;SDS011;9184;54.390;18.620;2023-09-19T02:39:29;20.02;;;15.45;;
18114;SDS011;9184;54.390;18.620;2023-09-19T02:40:00;22.45;;;16.75;;
18114;SDS011;9184;54.390;18.620;2023-09-19T02:40:32;19.55;;;15.35;;
18114;SDS011;9184;54.390;18.620;2023-09-19T02:41:05;22.17;;;14.90;;
18114;SDS011;9184;54.390;18.620;2023-09-19T02:41:36;16.55;;;14.18;;
18114;SDS011;9184;54.390;18.620;2023-09-19T02:42:06;21.63;;;16.02;;
18114;SDS011;9184;54.390;18.620;2023-09-19T02:42:38;18.17;;;14.90;;
18114;SDS011;9184;54.390;18.620;2023-09-19T02:43:08;16.38;;;14.23;;
18114;SDS011;9184;54.390;18.620;2023-09-19T02:43:39;17.27;;;12.98;;
18114;SDS011;9184;54.390;18.620;2023-09-19T02:44:09;15.98;;;14.23;;
18114;SDS011;9184;54.390;18.620;2023-09-19T02:44:41;18.20;;;14.00;;
18114;SDS011;9184;54.390;18.620;2023-09-19T02:45:11;16.60;;;13.70;;
18114;SDS011;9184;54.390;18.620;2023-09-19T02:45:41;22.08;;;14.48;;
18114;SDS011;9184;54.390;18.620;2023-09-19T02:46:14;20.65;;;13.80;;
18114;SDS011;9184;54.390;18.620;2023-09-19T02:46:47;20.55;;;13.13;;
18114;SDS011;9184;54.390;18.620;2023-09-19T02:47:17;17.88;;;14.32;;
18114;SDS011;9184;54.390;18.620;2023-09-19T02:47:49;13.98;;;12.50;;
18114;SDS011;9184;54.390;18.620;2023-09-19T02:48:20;19.45;;;13.02;;
18114;SDS011;9184;54.390;18.620;2023-09-19T02:48:51;17.92;;;13.13;;
18114;SDS011;9184;54.390;18.620;2023-09-19T02:49:22;15.35;;;11.27;;
18114;SDS011;9184;54.390;18.620;2023-09-19T02:49:52;14.80;;;11.27;;
18114;SDS011;9184;54.390;18.620;2023-09-19T02:50:23;13.23;;;10.73;;
18114;SDS011;9184;54.390;18.620;2023-09-19T02:50:54;16.50;;;11.18;;
18114;SDS011;9184;54.390;18.620;2023-09-19T02:51:25;15.43;;;11.30;;
18114;SDS011;9184;54.390;18.620;2023-09-19T02:51:55;12.75;;;10.20;;
18114;SDS011;9184;54.390;18.620;2023-09-19T02:52:26;16.40;;;10.43;;
18114;SDS011;9184;54.390;18.620;2023-09-19T02:52:57;12.93;;;9.50;;
18114;SDS011;9184;54.390;18.620;2023-09-19T02:53:28;14.60;;;10.27;;
18114;SDS011;9184;54.390;18.620;2023-09-19T02:53:58;14.00;;;9.82;;
18114;SDS011;9184;54.390;18.620;2023-09-19T02:54:29;13.38;;;9.75;;
18114;SDS011;9184;54.390;18.620;2023-09-19T02:55:00;11.75;;;9.50;;
18114;SDS011;9184;54.390;18.620;2023-09-19T02:55:31;12.18;;;9.50;;
18114;SDS011;9184;54.390;18.620;2023-09-19T02:56:02;11.85;;;9.93;;
18114;SDS011;9184;54.390;18.620;2023-09-19T02:56:34;13.10;;;9.10;;
18114;SDS011;9184;54.390;18.620;2023-09-19T02:57:05;10.63;;;9.18;;
18114;SDS011;9184;54.390;18.620;2023-09-19T02:57:36;11.45;;;9.48;;
18114;SDS011;9184;54.390;18.620;2023-09-19T02:58:10;13.63;;;10.23;;
18114;SDS011;9184;54.390;18.620;2023-09-19T02:58:41;12.77;;;9.38;;
18114;SDS011;9184;54.390;18.620;2023-09-19T02:59:12;13.18;;;10.05;;
18114;SDS011;9184;54.390;18.620;2023-09-19T02:59:44;12.35;;;10.50;;
18114;SDS011;9184;54.390;18.620;2023-09-19T03:00:15;13.30;;;9.85;;
18114;SDS011;9184;54.390;18.620;2023-09-19T03:00:46;12.48;;;9.60;;
18114;SDS011;9184;54.390;18.620;2023-09-19T03:01:19;11.55;;;9.38;;
18114;SDS011;9184;54.390;18.620;2023-09-19T03:01:50;11.50;;;9.52;;
18114;SDS011;9184;54.390;18.620;2023-09-19T03:02:21;15.43;;;10.45;;
18114;SDS011;9184;54.390;18.620;2023-09-19T03:02:54;15.20;;;10.30;;
18114;SDS011;9184;54.390;18.620;2023-09-19T03:03:25;14.30;;;9.88;;
18114;SDS011;9184;54.390;18.620;2023-09-19T03:03:58;15.65;;;11.13;;
18114;SDS011;9184;54.390;18.620;2023-09-19T03:04:29;11.57;;;9.55;;
18114;SDS011;9184;54.390;18.620;2023-09-19T03:04:59;12.43;;;8.43;;
18114;SDS011;9184;54.390;18.620;2023-09-19T03:05:30;11.18;;;9.23;;
18114;SDS011;9184;54.390;18.620;2023-09-19T03:06:01;17.35;;;9.77;;
18114;SDS011;9184;54.390;18.620;2023-09-19T03:06:34;12.55;;;8.20;;
18114;SDS011;9184;54.390;18.620;2023-09-19T03:07:04;10.75;;;7.93;;
18114;SDS011;9184;54.390;18.620;2023-09-19T03:07:36;12.25;;;9.10;;
18114;SDS011;9184;54.390;18.620;2023-09-19T03:08:07;9.32;;;7.70;;
18114;SDS011;9184;54.390;18.620;2023-09-19T03:08:38;12.43;;;7.22;;
18114;SDS011;9184;54.390;18.620;2023-09-19T03:09:09;13.00;;;7.50;;
18114;SDS011;9184;54.390;18.620;2023-09-19T03:09:41;10.82;;;8.05;;
18114;SDS011;9184;54.390;18.620;2023-09-19T03:10:12;8.13;;;6.32;;
18114;SDS011;9184;54.390;18.620;2023-09-19T03:10:45;10.23;;;6.70;;